createdAt,value
2022-11-19T00:01:28.655Z,100752.28
2022-11-19T00:03:56.393Z,100749.84
2022-11-19T00:06:26.464Z,100762.16
2022-11-19T00:08:54.504Z,100756.91
2022-11-19T00:11:46.332Z,100758.75
2022-11-19T00:14:15.351Z,100753.63
2022-11-19T00:16:43.878Z,100758.03
2022-11-19T00:19:12.053Z,100758.84
2022-11-19T00:21:38.975Z,100750.97
2022-11-19T00:24:06.587Z,100751.06
2022-11-19T00:26:33.662Z,100747.59
2022-11-19T00:29:00.736Z,100759.91
2022-11-19T00:31:27.717Z,100754.69
2022-11-19T00:33:55.075Z,100751.16
2022-11-19T00:36:23.213Z,100764.44
2022-11-19T00:38:50.796Z,100756.66
2022-11-19T00:41:18.220Z,100764.66
2022-11-19T00:43:48.349Z,100769.13
2022-11-19T00:46:28.661Z,100775.44
2022-11-19T00:48:58.890Z,100779.00
2022-11-19T00:51:29.273Z,100764.25
2022-11-19T00:53:56.664Z,100780.13
2022-11-19T00:56:26.352Z,100781.16
2022-11-19T00:58:54.609Z,100775.06
2022-11-19T01:01:24.673Z,100790.16
2022-11-19T01:03:53.581Z,100790.38
2022-11-19T01:06:24.426Z,100791.41
2022-11-19T01:08:53.118Z,100800.31
2022-11-19T01:11:24.773Z,100785.63
2022-11-19T01:13:52.189Z,100801.44
2022-11-19T01:16:25.211Z,100795.31
2022-11-19T01:18:53.120Z,100802.53
2022-11-19T01:21:25.363Z,100814.09
2022-11-19T01:23:52.698Z,100808.00
2022-11-19T01:26:20.039Z,100810.66
2022-11-19T01:28:47.575Z,100806.41
2022-11-19T01:31:27.842Z,100801.19
2022-11-19T01:33:55.446Z,100815.28
2022-11-19T01:36:26.633Z,100820.66
2022-11-19T01:38:54.576Z,100830.44
2022-11-19T01:41:31.110Z,100825.22
2022-11-19T01:44:06.726Z,100815.75
2022-11-19T01:46:38.469Z,100834.22
2022-11-19T01:49:19.312Z,100829.03
2022-11-19T01:51:54.316Z,100842.28
2022-11-19T01:54:30.262Z,100835.34
2022-11-19T01:57:02.489Z,100838.03
2022-11-19T01:59:31.300Z,100840.75
2022-11-19T02:01:58.205Z,100846.03
2022-11-19T02:04:27.818Z,100842.56
2022-11-19T02:06:55.677Z,100844.41
2022-11-19T02:09:23.746Z,100849.75
2022-11-19T02:12:13.064Z,100852.38
2022-11-19T02:14:53.537Z,100855.94
2022-11-19T02:18:15.336Z,100861.31
2022-11-19T02:21:19.946Z,100860.50
2022-11-19T02:24:00.229Z,100855.34
2022-11-19T02:26:29.976Z,100851.19
2022-11-19T02:29:10.139Z,100860.84
2022-11-19T02:31:57.989Z,100862.69
2022-11-19T02:34:52.298Z,100865.53
2022-11-19T02:37:27.824Z,100860.28
2022-11-19T02:40:09.775Z,100872.63
2022-11-19T02:43:03.375Z,100872.66
2022-11-19T02:45:59.266Z,100878.81
2022-11-19T02:48:34.639Z,100879.72
2022-11-19T02:51:04.627Z,100874.50
2022-11-19T02:53:32.802Z,100872.78
2022-11-19T02:56:13.970Z,100879.84
2022-11-19T02:59:10.229Z,100874.72
2022-11-19T03:02:00.910Z,100874.75
2022-11-19T03:04:29.730Z,100887.91
2022-11-19T03:07:05.388Z,100881.78
2022-11-19T03:09:34.800Z,100882.75
2022-11-19T03:12:47.853Z,100887.19
2022-11-19T03:16:05.604Z,100888.13
2022-11-19T03:18:40.254Z,100903.06
2022-11-19T03:21:15.808Z,100896.94
2022-11-19T03:23:56.574Z,100895.22
2022-11-19T03:26:39.621Z,100895.22
2022-11-19T03:29:11.572Z,100892.69
2022-11-19T03:31:44.344Z,100900.59
2022-11-19T03:34:17.966Z,100897.22
2022-11-19T03:36:48.166Z,100906.97
2022-11-19T03:39:19.404Z,100913.09
2022-11-19T03:41:49.397Z,100906.97
2022-11-19T03:44:24.485Z,100909.63
2022-11-19T03:47:01.136Z,100912.31
2022-11-19T03:49:33.790Z,100900.06
2022-11-19T03:52:11.144Z,100908.88
2022-11-19T03:54:39.957Z,100908.09
2022-11-19T03:57:09.873Z,100912.47
2022-11-19T03:59:36.905Z,100919.47
2022-11-19T04:02:08.697Z,100920.44
2022-11-19T04:04:37.271Z,100923.16
2022-11-19T04:07:14.545Z,100933.66
2022-11-19T04:09:42.460Z,100935.50
2022-11-19T04:12:19.130Z,100932.06
2022-11-19T04:14:47.142Z,100925.84
2022-11-19T04:17:15.304Z,100941.72
2022-11-19T04:19:42.428Z,100941.78
2022-11-19T04:22:09.599Z,100930.44
2022-11-19T04:24:36.660Z,100928.75
2022-11-19T04:27:03.985Z,100941.06
2022-11-19T04:29:30.955Z,100940.13
2022-11-19T04:31:57.908Z,100939.34
2022-11-19T04:34:24.931Z,100939.38
2022-11-19T04:36:51.979Z,100943.75
2022-11-19T04:39:19.265Z,100945.53
2022-11-19T04:41:46.389Z,100952.56
2022-11-19T04:44:13.533Z,100944.75
2022-11-19T04:46:40.458Z,100942.91
2022-11-19T04:49:07.435Z,100944.75
2022-11-19T04:51:34.323Z,100947.34
2022-11-19T04:54:01.359Z,100947.41
2022-11-19T04:56:28.422Z,100943.94
2022-11-19T04:58:55.432Z,100947.44
2022-11-19T05:01:22.584Z,100953.56
2022-11-19T05:03:50.688Z,100963.16
2022-11-19T05:06:17.741Z,100962.34
2022-11-19T05:08:44.966Z,100965.00
2022-11-19T05:11:12.310Z,100971.09
2022-11-19T05:13:39.517Z,100964.94
2022-11-19T05:16:06.613Z,100972.00
2022-11-19T05:18:33.586Z,100965.13
2022-11-19T05:21:00.663Z,100983.47
2022-11-19T05:23:27.709Z,100974.72
2022-11-19T05:25:54.653Z,100979.16
2022-11-19T05:28:32.790Z,100980.91
2022-11-19T05:31:04.925Z,100987.97
2022-11-19T05:33:34.307Z,100985.38
2022-11-19T05:36:02.584Z,100989.75
2022-11-19T05:38:29.880Z,100987.19
2022-11-19T05:40:56.889Z,100989.84
2022-11-19T05:43:23.816Z,100991.56
2022-11-19T05:45:50.772Z,100995.09
2022-11-19T05:48:17.672Z,100991.66
2022-11-19T05:50:44.698Z,100986.50
2022-11-19T05:53:11.700Z,100986.63
2022-11-19T05:55:38.680Z,100997.06
2022-11-19T05:58:05.588Z,100991.84
2022-11-19T06:00:32.610Z,100998.09
2022-11-19T06:02:59.561Z,100994.63
2022-11-19T06:05:26.548Z,100985.88
2022-11-19T06:07:53.613Z,100988.50
2022-11-19T06:10:20.582Z,100993.81
2022-11-19T06:12:47.683Z,100996.47
2022-11-19T06:15:15.344Z,101003.50
2022-11-19T06:17:42.933Z,101003.50
2022-11-19T06:20:11.161Z,101013.22
2022-11-19T06:22:38.861Z,101006.22
2022-11-19T06:25:07.770Z,101019.34
2022-11-19T06:27:34.943Z,101018.50
2022-11-19T06:30:02.433Z,101015.84
2022-11-19T06:32:29.502Z,101023.75
2022-11-19T06:34:56.454Z,101012.41
2022-11-19T06:37:24.061Z,101023.84
2022-11-19T06:39:51.084Z,101036.13
2022-11-19T06:42:36.078Z,101027.38
2022-11-19T06:45:09.348Z,101045.72
2022-11-19T06:47:37.063Z,101038.72
2022-11-19T06:50:06.355Z,101037.94
2022-11-19T06:52:33.381Z,101047.63
2022-11-19T06:55:00.620Z,101044.13
2022-11-19T06:57:30.810Z,101044.25
2022-11-19T07:00:01.463Z,101044.31
2022-11-19T07:02:29.283Z,101026.09
2022-11-19T07:04:56.802Z,100986.19
2022-11-19T07:07:30.471Z,101069.78
2022-11-19T07:09:58.392Z,101002.81
2022-11-19T07:12:28.620Z,101033.13
2022-11-19T07:15:03.975Z,100989.69
2022-11-19T07:17:35.595Z,101066.28
2022-11-19T07:20:02.728Z,101052.34
2022-11-19T07:22:29.631Z,101071.50
2022-11-19T07:24:56.688Z,101068.88
2022-11-19T07:27:23.626Z,101068.03
2022-11-19T07:29:50.650Z,101075.13
2022-11-19T07:32:17.577Z,101076.00
2022-11-19T07:34:44.651Z,101076.84
2022-11-19T07:37:11.610Z,101080.31
2022-11-19T07:39:38.595Z,101088.16
2022-11-19T07:42:24.372Z,101086.41
2022-11-19T07:44:54.929Z,101079.41
2022-11-19T07:47:22.238Z,101088.94
2022-11-19T07:49:49.160Z,101086.31
2022-11-19T07:52:16.533Z,101095.88
2022-11-19T07:54:43.415Z,101092.31
2022-11-19T07:57:11.912Z,101101.03
2022-11-19T07:59:38.829Z,101100.97
2022-11-19T08:02:06.440Z,101086.03
2022-11-19T08:04:33.422Z,101100.97
2022-11-19T08:07:01.370Z,101112.38
2022-11-19T08:09:28.275Z,101114.88
2022-11-19T08:11:55.273Z,101104.31
2022-11-19T08:14:22.175Z,101107.72
2022-11-19T08:17:08.420Z,101108.47
2022-11-19T08:19:35.691Z,101109.25
2022-11-19T08:22:02.572Z,101109.16
2022-11-19T08:24:29.845Z,101099.44
2022-11-19T08:26:56.829Z,101100.25
2022-11-19T08:29:23.984Z,101094.94
2022-11-19T08:31:51.597Z,101101.84
2022-11-19T08:34:18.993Z,101091.22
2022-11-19T08:36:46.151Z,101096.34
2022-11-19T08:39:13.157Z,101094.50
2022-11-19T08:41:58.925Z,101101.28
2022-11-19T08:44:25.909Z,101089.72
2022-11-19T08:46:52.797Z,101094.78
2022-11-19T08:49:19.958Z,101100.75
2022-11-19T08:51:49.663Z,101101.47
2022-11-19T08:54:17.085Z,101106.63
2022-11-19T08:56:44.386Z,101096.78
2022-11-19T08:59:11.351Z,101101.81
2022-11-19T09:01:38.268Z,101108.63
2022-11-19T09:04:05.646Z,101098.59
2022-11-19T09:06:35.569Z,101091.19
2022-11-19T09:09:04.335Z,101097.78
2022-11-19T09:11:31.546Z,101110.66
2022-11-19T09:13:59.447Z,101100.56
2022-11-19T09:16:26.515Z,101105.22
2022-11-19T09:18:53.657Z,101108.28
2022-11-19T09:21:20.588Z,101109.69
2022-11-19T09:23:47.615Z,101110.34
2022-11-19T09:26:19.371Z,101113.66
2022-11-19T09:28:46.608Z,101103.63
2022-11-19T09:31:17.645Z,101118.94
2022-11-19T09:33:49.309Z,101107.19
2022-11-19T09:36:17.681Z,101108.66
2022-11-19T09:38:45.594Z,101116.75
2022-11-19T09:41:50.528Z,101115.03
2022-11-19T09:45:01.325Z,101109.16
2022-11-19T09:47:56.208Z,101116.53
2022-11-19T09:50:27.008Z,101108.38
2022-11-19T09:52:58.842Z,101097.66
2022-11-19T09:55:45.137Z,101103.63
2022-11-19T09:58:30.600Z,101096.03
2022-11-19T10:00:59.453Z,101102.00
2022-11-19T10:03:33.088Z,101104.25
2022-11-19T10:06:12.089Z,101099.06
2022-11-19T10:09:16.762Z,101101.13
2022-11-19T10:12:04.057Z,101111.50
2022-11-19T10:14:48.531Z,101105.88
2022-11-19T10:17:30.434Z,101106.28
2022-11-19T10:20:34.429Z,101111.81
2022-11-19T10:23:25.406Z,101102.13
2022-11-19T10:26:02.897Z,101096.00
2022-11-19T10:28:36.479Z,101101.69
2022-11-19T10:31:17.000Z,101083.16
2022-11-19T10:34:06.110Z,101089.41
2022-11-19T10:36:41.964Z,101084.06
2022-11-19T10:39:46.276Z,101073.19
2022-11-19T10:42:36.343Z,101069.97
2022-11-19T10:45:31.193Z,101060.19
2022-11-19T10:48:21.006Z,101069.44
2022-11-19T10:50:48.222Z,101069.66
2022-11-19T10:53:38.659Z,101070.34
2022-11-19T10:56:13.862Z,101077.44
2022-11-19T10:58:50.555Z,101067.91
2022-11-19T11:01:30.192Z,101068.47
2022-11-19T11:04:18.943Z,101072.44
2022-11-19T11:06:56.719Z,101062.59
2022-11-19T11:09:32.377Z,101064.38
2022-11-19T11:12:29.395Z,101068.09
2022-11-19T11:15:14.522Z,101061.22
2022-11-19T11:17:42.593Z,101051.28
2022-11-19T11:20:18.770Z,101052.50
2022-11-19T11:22:51.100Z,101037.69
2022-11-19T11:25:25.108Z,101044.91
2022-11-19T11:28:20.144Z,101033.56
2022-11-19T11:30:55.132Z,101041.75
2022-11-19T11:33:24.838Z,101043.19
2022-11-19T11:35:53.468Z,101025.00
2022-11-19T11:38:24.349Z,101025.94
2022-11-19T11:44:06.573Z,101035.88
2022-11-19T11:46:48.353Z,101022.00
2022-11-19T11:49:35.247Z,101027.88
2022-11-19T11:52:20.818Z,101027.63
2022-11-19T11:55:14.658Z,101029.16
2022-11-19T11:57:58.211Z,101029.47
2022-11-19T12:00:41.195Z,101018.34
2022-11-19T12:03:11.319Z,101022.44
2022-11-19T12:06:02.294Z,101024.69
2022-11-19T12:08:53.760Z,101025.44
2022-11-19T12:11:56.388Z,101024.06
2022-11-19T12:15:00.247Z,101010.72
2022-11-19T12:17:57.675Z,101014.19
2022-11-19T12:20:52.080Z,101020.41
2022-11-19T12:23:55.936Z,101007.78
2022-11-19T12:26:59.866Z,101009.13
2022-11-19T12:29:54.276Z,100997.19
2022-11-19T12:33:20.848Z,100998.06
2022-11-19T12:36:28.828Z,101000.50
2022-11-19T12:39:40.344Z,101006.41
2022-11-19T12:42:59.857Z,101006.22
2022-11-19T12:46:02.529Z,101002.06
2022-11-19T12:48:48.436Z,100995.59
2022-11-19T12:51:45.094Z,100988.94
2022-11-19T12:54:27.873Z,100994.00
2022-11-19T12:57:45.122Z,100992.44
2022-11-19T13:00:15.843Z,100984.53
2022-11-19T13:02:54.470Z,100981.84
2022-11-19T13:05:45.373Z,100988.28
2022-11-19T13:08:32.729Z,100975.19
2022-11-19T13:11:28.787Z,100987.09
2022-11-19T13:14:01.072Z,100996.56
2022-11-19T13:16:30.852Z,100992.59
2022-11-19T13:19:32.783Z,100996.44
2022-11-19T13:22:19.059Z,100994.72
2022-11-19T13:24:59.032Z,100987.63
2022-11-19T13:27:29.124Z,100979.00
2022-11-19T13:30:16.736Z,100981.22
2022-11-19T13:33:11.736Z,100976.72
2022-11-19T13:36:03.212Z,100971.91
2022-11-19T13:39:03.323Z,100977.16
2022-11-19T13:42:01.468Z,100973.63
2022-11-19T13:44:43.545Z,100970.41
2022-11-19T13:47:23.927Z,100976.13
2022-11-19T13:50:01.374Z,100964.31
2022-11-19T13:53:01.483Z,100969.59
2022-11-19T13:55:28.360Z,100973.75
2022-11-19T13:57:57.210Z,100961.34
2022-11-19T14:00:27.773Z,100961.91
2022-11-19T14:03:29.337Z,100964.47
2022-11-19T14:06:11.317Z,100967.00
2022-11-19T14:09:32.347Z,100966.69
2022-11-19T14:12:31.895Z,100966.22
2022-11-19T14:15:42.400Z,100957.53
2022-11-19T14:18:41.980Z,100955.91
2022-11-19T14:21:47.471Z,100956.81
2022-11-19T14:24:53.539Z,100954.47
2022-11-19T14:27:27.267Z,100958.00
2022-11-19T14:30:03.019Z,100956.78
2022-11-19T14:32:46.369Z,100961.56
2022-11-19T14:35:26.215Z,100958.00
2022-11-19T14:38:19.450Z,100956.38
2022-11-19T14:40:47.343Z,100962.34
2022-11-19T14:43:36.449Z,100962.78
2022-11-19T14:46:04.311Z,100970.38
2022-11-19T14:48:40.169Z,100971.59
2022-11-19T14:51:17.816Z,100965.06
2022-11-19T14:54:15.021Z,100975.06
2022-11-19T14:56:47.662Z,100969.88
2022-11-19T14:59:14.492Z,100969.84
2022-11-19T15:02:09.997Z,100963.16
2022-11-19T15:05:01.040Z,100965.72
2022-11-19T15:07:38.825Z,100960.91
2022-11-19T15:10:15.064Z,100955.47
2022-11-19T15:12:45.307Z,100956.25
2022-11-19T15:15:22.342Z,100956.09
2022-11-19T15:18:34.373Z,100955.91
2022-11-19T15:21:41.789Z,100951.75
2022-11-19T15:24:29.677Z,100965.66
2022-11-19T15:27:17.556Z,100961.91
2022-11-19T15:30:44.237Z,100955.56
2022-11-19T15:33:37.300Z,100954.56
2022-11-19T15:36:31.971Z,100943.84
2022-11-19T15:39:24.921Z,100949.53
2022-11-19T15:42:02.368Z,100956.91
2022-11-19T15:44:59.384Z,100947.59
2022-11-19T15:47:34.318Z,100945.59
2022-11-19T15:50:03.163Z,100939.00
2022-11-19T15:52:32.031Z,100939.41
2022-11-19T15:55:19.505Z,100942.47
2022-11-19T15:57:51.241Z,100940.28
2022-11-19T16:00:23.169Z,100936.28
2022-11-19T16:02:52.440Z,100934.84
2022-11-19T16:05:26.631Z,100935.94
2022-11-19T16:07:54.390Z,100937.03
2022-11-19T16:10:34.009Z,100935.31
2022-11-19T16:13:22.985Z,100938.22
2022-11-19T16:16:12.091Z,100928.97
2022-11-19T16:18:47.369Z,100936.44
2022-11-19T16:21:38.046Z,100939.28
2022-11-19T16:24:31.999Z,100937.94
2022-11-19T16:27:00.140Z,100936.47
2022-11-19T16:29:27.594Z,100940.16
2022-11-19T16:31:59.609Z,100934.28
2022-11-19T16:34:31.333Z,100946.06
2022-11-19T16:36:59.172Z,100939.28
2022-11-19T16:39:31.482Z,100939.38
2022-11-19T16:42:22.389Z,100936.16
2022-11-19T16:44:54.782Z,100941.66
2022-11-19T16:47:30.760Z,100955.06
2022-11-19T16:50:00.849Z,100950.66
2022-11-19T16:52:40.626Z,100960.22
2022-11-19T16:55:19.685Z,100958.63
2022-11-19T16:57:49.147Z,100951.75
2022-11-19T17:00:25.631Z,100950.19
2022-11-19T17:02:52.641Z,100947.03
2022-11-19T17:05:24.661Z,100943.81
2022-11-19T17:08:12.741Z,100944.38
2022-11-19T17:10:39.825Z,100954.53
2022-11-19T17:13:19.188Z,100957.34
2022-11-19T17:15:48.404Z,100958.47
2022-11-19T17:18:33.079Z,100961.38
2022-11-19T17:21:08.296Z,100962.53
2022-11-19T17:23:47.159Z,100959.16
2022-11-19T17:26:22.276Z,100964.34
2022-11-19T17:28:54.027Z,100970.50
2022-11-19T17:31:26.026Z,100963.53
2022-11-19T17:34:04.996Z,100964.50
2022-11-19T17:36:31.965Z,100966.47
2022-11-19T17:38:59.412Z,100960.41
2022-11-19T17:41:47.715Z,100976.25
2022-11-19T17:44:36.217Z,100970.06
2022-11-19T17:47:22.874Z,100965.84
2022-11-19T17:49:50.655Z,100964.28
2022-11-19T17:52:30.226Z,100974.97
2022-11-19T17:55:26.814Z,100966.41
2022-11-19T17:57:53.810Z,100972.00
2022-11-19T18:00:20.834Z,100966.84
2022-11-19T18:02:48.745Z,100960.75
2022-11-19T18:05:21.076Z,100957.38
2022-11-19T18:07:48.047Z,100958.34
2022-11-19T18:10:15.024Z,100958.56
2022-11-19T18:12:42.060Z,100954.41
2022-11-19T18:15:17.851Z,100954.41
2022-11-19T18:17:45.364Z,100951.72
2022-11-19T18:20:13.197Z,100960.53
2022-11-19T18:22:40.855Z,100965.97
2022-11-19T18:25:20.225Z,100957.47
2022-11-19T18:27:47.202Z,100958.63
2022-11-19T18:30:15.128Z,100963.94
2022-11-19T18:32:42.509Z,100963.94
2022-11-19T18:35:19.174Z,100961.16
2022-11-19T18:37:46.635Z,100963.09
2022-11-19T18:40:15.391Z,100960.66
2022-11-19T18:43:03.081Z,100978.34
2022-11-19T18:45:30.262Z,100967.09
2022-11-19T18:47:57.528Z,100969.69
2022-11-19T18:50:29.589Z,100968.00
2022-11-19T18:52:57.230Z,100976.03
2022-11-19T18:55:24.420Z,100970.28
2022-11-19T18:57:51.750Z,100969.59
2022-11-19T19:00:18.878Z,100970.50
2022-11-19T19:02:45.908Z,100979.44
2022-11-19T19:05:12.817Z,100979.53
2022-11-19T19:07:39.877Z,100976.09
2022-11-19T19:10:07.407Z,100982.28
2022-11-19T19:12:34.375Z,100976.16
2022-11-19T19:15:01.315Z,100977.19
2022-11-19T19:17:28.365Z,100980.78
2022-11-19T19:19:55.258Z,100978.22
2022-11-19T19:22:22.638Z,100980.03
2022-11-19T19:24:53.840Z,100975.66
2022-11-19T19:27:23.884Z,100972.16
2022-11-19T19:29:50.832Z,100968.66
2022-11-19T19:32:17.785Z,100965.97
2022-11-19T19:34:44.687Z,100964.22
2022-11-19T19:37:11.782Z,100966.88
2022-11-19T19:39:38.730Z,100967.00
2022-11-19T19:42:05.887Z,100973.25
2022-11-19T19:44:32.934Z,100966.34
2022-11-19T19:47:00.444Z,100967.31
2022-11-19T19:49:27.455Z,100968.41
2022-11-19T19:51:54.646Z,100960.06
2022-11-19T19:54:21.581Z,100951.34
2022-11-19T19:56:48.790Z,100947.97
2022-11-19T19:59:16.028Z,100945.72
2022-11-19T20:01:47.380Z,100941.19
2022-11-19T20:04:14.641Z,100940.31
2022-11-19T20:06:46.879Z,100945.56
2022-11-19T20:09:14.504Z,100951.66
2022-11-19T20:11:41.539Z,100949.53
2022-11-19T20:14:09.636Z,100947.41
2022-11-19T20:16:40.251Z,100952.09
2022-11-19T20:19:08.802Z,100955.94
2022-11-19T20:21:36.517Z,100947.50
2022-11-19T20:24:11.492Z,100951.22
2022-11-19T20:26:40.449Z,100946.84
2022-11-19T20:29:07.474Z,100947.06
2022-11-19T20:31:35.098Z,100949.00
2022-11-19T20:34:04.813Z,100942.97
2022-11-19T20:36:34.669Z,100941.31
2022-11-19T20:39:02.079Z,100936.97
2022-11-19T20:41:47.687Z,100944.00
2022-11-19T20:44:20.770Z,100939.78
2022-11-19T20:46:52.081Z,100942.59
2022-11-19T20:49:21.723Z,100938.50
2022-11-19T20:51:49.427Z,100943.84
2022-11-19T20:54:16.492Z,100939.50
2022-11-19T20:56:43.570Z,100943.88
2022-11-19T20:59:12.344Z,100944.56
2022-11-19T21:01:39.826Z,100948.03
2022-11-19T21:04:07.089Z,100943.72
2022-11-19T21:06:35.072Z,100954.28
2022-11-19T21:09:02.129Z,100948.34
2022-11-19T21:11:29.158Z,100949.38
2022-11-19T21:13:56.505Z,100939.06
2022-11-19T21:16:25.714Z,100935.81
2022-11-19T21:18:53.130Z,100938.56
2022-11-19T21:21:22.294Z,100943.84
2022-11-19T21:23:49.445Z,100934.19
2022-11-19T21:26:22.976Z,100928.97
2022-11-19T21:28:53.428Z,100930.63
2022-11-19T21:31:37.964Z,100935.81
2022-11-19T21:34:15.336Z,100927.91
2022-11-19T21:36:44.174Z,100923.50
2022-11-19T21:39:12.095Z,100929.81
2022-11-19T21:41:39.271Z,100926.50
2022-11-19T21:44:06.543Z,100931.97
2022-11-19T21:46:34.133Z,100928.59
2022-11-19T21:49:01.492Z,100927.78
2022-11-19T21:51:28.868Z,100925.16
2022-11-19T21:53:57.054Z,100914.63
2022-11-19T21:56:25.078Z,100919.84
2022-11-19T21:58:52.247Z,100912.84
2022-11-19T22:01:19.453Z,100926.91
2022-11-19T22:03:46.615Z,100911.28
2022-11-19T22:06:13.709Z,100928.94
2022-11-19T22:08:42.218Z,100929.00
2022-11-19T22:11:29.344Z,100926.31
2022-11-19T22:14:05.655Z,100917.75
2022-11-19T22:16:39.469Z,100924.91
2022-11-19T22:19:06.969Z,100924.72
2022-11-19T22:21:34.934Z,100920.84
2022-11-19T22:24:02.862Z,100918.06
2022-11-19T22:26:29.898Z,100916.34
2022-11-19T22:28:57.080Z,100915.38
2022-11-19T22:31:25.310Z,100913.34
2022-11-19T22:33:53.667Z,100911.09
2022-11-19T22:36:22.068Z,100915.69
2022-11-19T22:38:50.638Z,100911.50
2022-11-19T22:41:20.547Z,100914.38
2022-11-19T22:43:47.566Z,100915.50
2022-11-19T22:46:15.290Z,100913.84
2022-11-19T22:48:42.392Z,100920.03
2022-11-19T22:51:21.139Z,100912.28
2022-11-19T22:53:50.164Z,100910.69
2022-11-19T22:56:21.278Z,100909.09
2022-11-19T22:58:49.905Z,100897.06
2022-11-19T23:01:25.735Z,100894.56
2022-11-19T23:03:53.887Z,100899.97
2022-11-19T23:06:21.477Z,100911.44
2022-11-19T23:08:48.640Z,100907.09
2022-11-19T23:11:38.243Z,100918.38
2022-11-19T23:14:07.783Z,100892.06
2022-11-19T23:16:36.839Z,100899.88
2022-11-19T23:19:05.061Z,100888.47
2022-11-19T23:21:32.257Z,100897.16
2022-11-19T23:24:02.869Z,100895.44
2022-11-19T23:26:31.836Z,100891.88
2022-11-19T23:28:59.228Z,100885.78
2022-11-19T23:31:29.783Z,100887.44
2022-11-19T23:33:59.505Z,100886.56
2022-11-19T23:36:33.509Z,100888.38
2022-11-19T23:39:01.072Z,100880.56
2022-11-19T23:41:28.608Z,100888.41
2022-11-19T23:43:56.288Z,100880.59
2022-11-19T23:46:29.342Z,100888.41
2022-11-19T23:48:58.191Z,100871.91
2022-11-19T23:51:35.204Z,100884.19
2022-11-19T23:54:02.991Z,100878.06
2022-11-19T23:56:32.057Z,100876.31
2022-11-19T23:59:01.697Z,100875.56
